sensor_id;sensor_type;location;lat;lon;timestamp;pressure;altitude;pressure_sealevel;temperature;humidity
11678;BME280;5895;41.950;24.372;2023-02-23T00:01:19;86655.75;;;4.52;52.30
11678;BME280;5895;41.950;24.372;2023-02-23T00:03:48;86651.41;;;4.46;51.79
11678;BME280;5895;41.950;24.372;2023-02-23T00:06:17;86647.06;;;4.40;52.07
11678;BME280;5895;41.950;24.372;2023-02-23T00:08:45;86650.63;;;4.39;51.80
11678;BME280;5895;41.950;24.372;2023-02-23T00:11:15;86646.47;;;4.38;52.19
11678;BME280;5895;41.950;24.372;2023-02-23T00:13:44;86645.47;;;4.32;52.01
11678;BME280;5895;41.950;24.372;2023-02-23T00:16:14;86643.06;;;4.31;52.65
11678;BME280;5895;41.950;24.372;2023-02-23T00:18:43;86647.03;;;4.27;51.79
11678;BME280;5895;41.950;24.372;2023-02-23T00:21:17;86643.28;;;4.22;52.66
11678;BME280;5895;41.950;24.372;2023-02-23T00:23:48;86651.97;;;4.21;54.24
11678;BME280;5895;41.950;24.372;2023-02-23T00:26:18;86647.78;;;4.20;53.93
11678;BME280;5895;41.950;24.372;2023-02-23T00:28:47;86649.00;;;4.18;52.32
11678;BME280;5895;41.950;24.372;2023-02-23T00:31:16;86635.94;;;4.13;52.40
11678;BME280;5895;41.950;24.372;2023-02-23T00:33:43;86650.19;;;4.15;52.33
11678;BME280;5895;41.950;24.372;2023-02-23T00:36:13;86643.44;;;4.14;52.92
11678;BME280;5895;41.950;24.372;2023-02-23T00:38:41;86644.63;;;4.12;52.53
11678;BME280;5895;41.950;24.372;2023-02-23T00:41:12;86640.66;;;4.09;52.34
11678;BME280;5895;41.950;24.372;2023-02-23T00:43:43;86634.34;;;4.05;53.44
11678;BME280;5895;41.950;24.372;2023-02-23T00:46:14;86638.28;;;4.01;52.32
11678;BME280;5895;41.950;24.372;2023-02-23T00:48:42;86635.13;;;3.99;52.11
11678;BME280;5895;41.950;24.372;2023-02-23T00:51:11;86641.44;;;3.96;52.63
11678;BME280;5895;41.950;24.372;2023-02-23T00:53:39;86634.31;;;3.92;52.74
11678;BME280;5895;41.950;24.372;2023-02-23T00:56:08;86630.75;;;3.86;53.94
11678;BME280;5895;41.950;24.372;2023-02-23T00:58:36;86634.47;;;3.77;53.13
11678;BME280;5895;41.950;24.372;2023-02-23T01:01:07;86626.78;;;3.77;54.49
11678;BME280;5895;41.950;24.372;2023-02-23T01:03:35;86629.91;;;3.72;53.71
11678;BME280;5895;41.950;24.372;2023-02-23T01:06:05;86645.28;;;3.66;53.93
11678;BME280;5895;41.950;24.372;2023-02-23T01:08:35;86632.63;;;3.64;53.95
11678;BME280;5895;41.950;24.372;2023-02-23T01:11:05;86628.28;;;3.58;54.73
11678;BME280;5895;41.950;24.372;2023-02-23T01:13:34;86633.03;;;3.55;53.72
11678;BME280;5895;41.950;24.372;2023-02-23T01:16:04;86628.06;;;3.53;54.48
11678;BME280;5895;41.950;24.372;2023-02-23T01:18:33;86623.91;;;3.45;54.68
11678;BME280;5895;41.950;24.372;2023-02-23T01:21:01;86628.00;;;3.40;53.23
11678;BME280;5895;41.950;24.372;2023-02-23T01:23:30;86632.56;;;3.38;53.46
11678;BME280;5895;41.950;24.372;2023-02-23T01:25:58;86628.78;;;3.34;53.48
11678;BME280;5895;41.950;24.372;2023-02-23T01:28:25;86625.00;;;3.30;53.71
11678;BME280;5895;41.950;24.372;2023-02-23T01:30:53;86625.19;;;3.28;54.02
11678;BME280;5895;41.950;24.372;2023-02-23T01:33:20;86618.69;;;3.26;53.94
11678;BME280;5895;41.950;24.372;2023-02-23T01:35:57;86619.50;;;3.26;59.17
11678;BME280;5895;41.950;24.372;2023-02-23T01:38:25;86620.63;;;3.24;54.08
11678;BME280;5895;41.950;24.372;2023-02-23T01:40:52;86620.06;;;3.22;53.91
11678;BME280;5895;41.950;24.372;2023-02-23T01:43:21;86620.25;;;3.20;53.89
11678;BME280;5895;41.950;24.372;2023-02-23T01:45:51;86622.97;;;3.18;53.65
11678;BME280;5895;41.950;24.372;2023-02-23T01:48:20;86621.03;;;3.21;54.28
11678;BME280;5895;41.950;24.372;2023-02-23T01:50:53;86619.06;;;3.23;56.12
11678;BME280;5895;41.950;24.372;2023-02-23T01:53:24;86624.78;;;3.25;55.83
11678;BME280;5895;41.950;24.372;2023-02-23T01:55:55;86623.81;;;3.26;55.78
11678;BME280;5895;41.950;24.372;2023-02-23T01:58:25;86632.66;;;3.23;54.08
11678;BME280;5895;41.950;24.372;2023-02-23T02:00:55;86628.94;;;3.26;54.78
11678;BME280;5895;41.950;24.372;2023-02-23T02:03:28;86618.50;;;3.27;55.11
11678;BME280;5895;41.950;24.372;2023-02-23T02:05:58;86610.03;;;3.27;55.49
11678;BME280;5895;41.950;24.372;2023-02-23T02:08:30;86618.69;;;3.26;56.08
11678;BME280;5895;41.950;24.372;2023-02-23T02:10:58;86622.22;;;3.25;54.53
11678;BME280;5895;41.950;24.372;2023-02-23T02:13:33;86619.06;;;3.23;54.65
11678;BME280;5895;41.950;24.372;2023-02-23T02:19:23;86617.88;;;3.25;59.42
11678;BME280;5895;41.950;24.372;2023-02-23T02:22:19;86616.66;;;3.14;61.40
11678;BME280;5895;41.950;24.372;2023-02-23T02:25:11;86619.38;;;3.06;62.05
11678;BME280;5895;41.950;24.372;2023-02-23T02:30:47;86610.88;;;2.99;59.63
11678;BME280;5895;41.950;24.372;2023-02-23T02:33:41;86616.34;;;2.96;60.38
11678;BME280;5895;41.950;24.372;2023-02-23T02:36:25;86613.19;;;2.94;60.14
11678;BME280;5895;41.950;24.372;2023-02-23T02:39:02;86616.13;;;2.91;58.39
11678;BME280;5895;41.950;24.372;2023-02-23T02:41:47;86614.31;;;2.85;58.30
11678;BME280;5895;41.950;24.372;2023-02-23T02:44:26;86607.25;;;2.87;59.06
11678;BME280;5895;41.950;24.372;2023-02-23T02:47:00;86618.47;;;2.86;57.18
11678;BME280;5895;41.950;24.372;2023-02-23T02:49:34;86607.63;;;2.84;55.80
11678;BME280;5895;41.950;24.372;2023-02-23T02:52:07;86609.59;;;2.82;57.55
11678;BME280;5895;41.950;24.372;2023-02-23T02:54:44;86608.59;;;2.83;57.74
11678;BME280;5895;41.950;24.372;2023-02-23T02:57:14;86611.75;;;2.85;55.74
11678;BME280;5895;41.950;24.372;2023-02-23T02:59:44;86607.38;;;2.79;56.50
11678;BME280;5895;41.950;24.372;2023-02-23T03:02:31;86602.25;;;2.79;55.94
11678;BME280;5895;41.950;24.372;2023-02-23T03:05:18;86603.44;;;2.76;55.91
11678;BME280;5895;41.950;24.372;2023-02-23T03:08:10;86605.56;;;2.73;59.63
11678;BME280;5895;41.950;24.372;2023-02-23T03:11:01;86610.09;;;2.71;58.50
11678;BME280;5895;41.950;24.372;2023-02-23T03:13:55;86604.97;;;2.71;59.67
11678;BME280;5895;41.950;24.372;2023-02-23T03:16:50;86613.59;;;2.63;59.30
11678;BME280;5895;41.950;24.372;2023-02-23T03:19:41;86598.13;;;2.50;57.11
11678;BME280;5895;41.950;24.372;2023-02-23T03:22:35;86614.16;;;2.58;57.97
11678;BME280;5895;41.950;24.372;2023-02-23T03:25:26;86604.09;;;2.57;58.14
11678;BME280;5895;41.950;24.372;2023-02-23T03:28:17;86611.97;;;2.55;57.92
11678;BME280;5895;41.950;24.372;2023-02-23T03:31:08;86614.72;;;2.54;59.18
11678;BME280;5895;41.950;24.372;2023-02-23T03:34:01;86612.31;;;2.52;58.10
11678;BME280;5895;41.950;24.372;2023-02-23T03:36:51;86610.75;;;2.51;57.11
11678;BME280;5895;41.950;24.372;2023-02-23T03:39:41;86615.88;;;2.51;58.00
11678;BME280;5895;41.950;24.372;2023-02-23T03:42:31;86617.84;;;2.49;58.35
11678;BME280;5895;41.950;24.372;2023-02-23T03:45:20;86607.59;;;2.49;57.30
11678;BME280;5895;41.950;24.372;2023-02-23T03:48:08;86614.06;;;2.45;57.33
11678;BME280;5895;41.950;24.372;2023-02-23T03:50:57;86609.31;;;2.42;57.18
11678;BME280;5895;41.950;24.372;2023-02-23T03:53:47;86607.91;;;2.39;58.98
11678;BME280;5895;41.950;24.372;2023-02-23T03:56:37;86607.50;;;2.36;57.14
11678;BME280;5895;41.950;24.372;2023-02-23T03:59:27;86617.91;;;2.34;58.67
11678;BME280;5895;41.950;24.372;2023-02-23T04:02:17;86623.56;;;2.30;58.61
11678;BME280;5895;41.950;24.372;2023-02-23T04:05:07;86614.50;;;2.27;57.89
11678;BME280;5895;41.950;24.372;2023-02-23T04:07:53;86612.16;;;2.26;55.81
11678;BME280;5895;41.950;24.372;2023-02-23T04:10:45;86622.56;;;2.24;59.84
11678;BME280;5895;41.950;24.372;2023-02-23T04:13:32;86616.47;;;2.25;56.58
11678;BME280;5895;41.950;24.372;2023-02-23T04:16:02;86610.56;;;2.25;57.45
11678;BME280;5895;41.950;24.372;2023-02-23T04:18:32;86608.97;;;2.24;57.53
11678;BME280;5895;41.950;24.372;2023-02-23T04:21:00;86616.03;;;2.22;57.16
11678;BME280;5895;41.950;24.372;2023-02-23T04:23:28;86608.00;;;2.25;56.72
11678;BME280;5895;41.950;24.372;2023-02-23T04:25:56;86612.50;;;2.23;57.01
11678;BME280;5895;41.950;24.372;2023-02-23T04:28:25;86609.94;;;2.23;56.44
11678;BME280;5895;41.950;24.372;2023-02-23T04:30:52;86606.59;;;2.22;56.40
11678;BME280;5895;41.950;24.372;2023-02-23T04:33:20;86605.03;;;2.21;56.79
11678;BME280;5895;41.950;24.372;2023-02-23T04:35:51;86618.00;;;2.20;58.82
11678;BME280;5895;41.950;24.372;2023-02-23T04:38:19;86610.94;;;2.22;56.65
11678;BME280;5895;41.950;24.372;2023-02-23T04:40:46;86599.91;;;2.21;56.33
11678;BME280;5895;41.950;24.372;2023-02-23T04:43:14;86609.34;;;2.21;57.03
11678;BME280;5895;41.950;24.372;2023-02-23T04:45:41;86606.59;;;2.22;57.30
11678;BME280;5895;41.950;24.372;2023-02-23T04:48:09;86607.78;;;2.20;56.83
11678;BME280;5895;41.950;24.372;2023-02-23T04:50:37;86602.66;;;2.20;57.15
11678;BME280;5895;41.950;24.372;2023-02-23T04:53:05;86613.63;;;2.14;58.16
11678;BME280;5895;41.950;24.372;2023-02-23T04:55:33;86601.78;;;2.12;56.99
11678;BME280;5895;41.950;24.372;2023-02-23T04:58:01;86608.88;;;2.10;57.05
11678;BME280;5895;41.950;24.372;2023-02-23T05:00:28;86610.03;;;2.08;57.28
11678;BME280;5895;41.950;24.372;2023-02-23T05:02:58;86614.34;;;2.07;56.65
11678;BME280;5895;41.950;24.372;2023-02-23T05:05:25;86616.09;;;2.07;57.60
11678;BME280;5895;41.950;24.372;2023-02-23T05:07:52;86611.78;;;2.07;58.24
11678;BME280;5895;41.950;24.372;2023-02-23T05:10:22;86610.81;;;2.08;59.33
11678;BME280;5895;41.950;24.372;2023-02-23T05:12:49;86610.81;;;2.08;57.57
11678;BME280;5895;41.950;24.372;2023-02-23T05:15:17;86617.88;;;2.06;57.76
11678;BME280;5895;41.950;24.372;2023-02-23T05:17:44;86617.53;;;2.09;57.93
11678;BME280;5895;41.950;24.372;2023-02-23T05:20:13;86619.09;;;2.10;58.25
11678;BME280;5895;41.950;24.372;2023-02-23T05:22:41;86626.59;;;2.12;57.74
11678;BME280;5895;41.950;24.372;2023-02-23T05:25:09;86625.44;;;2.15;57.80
11678;BME280;5895;41.950;24.372;2023-02-23T05:27:38;86623.47;;;2.17;58.50
11678;BME280;5895;41.950;24.372;2023-02-23T05:30:06;86629.19;;;2.19;57.67
11678;BME280;5895;41.950;24.372;2023-02-23T05:32:34;86628.25;;;2.20;57.86
11678;BME280;5895;41.950;24.372;2023-02-23T05:35:02;86634.75;;;2.22;57.56
11678;BME280;5895;41.950;24.372;2023-02-23T05:37:29;86631.84;;;2.25;57.82
11678;BME280;5895;41.950;24.372;2023-02-23T05:39:58;86626.53;;;2.27;57.24
11678;BME280;5895;41.950;24.372;2023-02-23T05:42:25;86637.34;;;2.29;57.49
11678;BME280;5895;41.950;24.372;2023-02-23T05:44:54;86642.91;;;2.32;58.76
11678;BME280;5895;41.950;24.372;2023-02-23T05:47:21;86650.03;;;2.37;57.81
11678;BME280;5895;41.950;24.372;2023-02-23T05:49:49;86640.22;;;2.41;56.77
11678;BME280;5895;41.950;24.372;2023-02-23T05:52:16;86649.25;;;2.36;57.39
11678;BME280;5895;41.950;24.372;2023-02-23T05:54:43;86654.19;;;2.38;57.32
11678;BME280;5895;41.950;24.372;2023-02-23T05:57:11;86648.47;;;2.36;57.47
11678;BME280;5895;41.950;24.372;2023-02-23T05:59:38;86660.63;;;2.34;57.34
11678;BME280;5895;41.950;24.372;2023-02-23T06:02:07;86652.97;;;2.34;58.07
11678;BME280;5895;41.950;24.372;2023-02-23T06:04:34;86653.59;;;2.36;56.95
11678;BME280;5895;41.950;24.372;2023-02-23T06:07:02;86658.72;;;2.36;57.38
11678;BME280;5895;41.950;24.372;2023-02-23T06:09:29;86662.66;;;2.38;56.81
11678;BME280;5895;41.950;24.372;2023-02-23T06:11:56;86657.19;;;2.42;56.94
11678;BME280;5895;41.950;24.372;2023-02-23T06:14:25;86667.41;;;2.42;57.44
11678;BME280;5895;41.950;24.372;2023-02-23T06:16:52;86660.69;;;2.41;57.70
11678;BME280;5895;41.950;24.372;2023-02-23T06:19:21;86661.47;;;2.41;58.21
11678;BME280;5895;41.950;24.372;2023-02-23T06:21:49;86664.66;;;2.43;57.79
11678;BME280;5895;41.950;24.372;2023-02-23T06:24:17;86669.41;;;2.46;57.41
11678;BME280;5895;41.950;24.372;2023-02-23T06:26:45;86677.72;;;2.48;57.09
11678;BME280;5895;41.950;24.372;2023-02-23T06:29:12;86676.97;;;2.54;57.04
11678;BME280;5895;41.950;24.372;2023-02-23T06:31:40;86679.16;;;2.57;57.13
11678;BME280;5895;41.950;24.372;2023-02-23T06:34:08;86671.09;;;2.60;56.88
11678;BME280;5895;41.950;24.372;2023-02-23T06:36:37;86680.00;;;2.64;57.30
11678;BME280;5895;41.950;24.372;2023-02-23T06:39:04;86683.41;;;2.72;56.73
11678;BME280;5895;41.950;24.372;2023-02-23T06:41:32;86677.19;;;2.81;56.31
11678;BME280;5895;41.950;24.372;2023-02-23T06:44:00;86676.16;;;3.03;55.60
11678;BME280;5895;41.950;24.372;2023-02-23T06:46:27;86677.44;;;3.21;56.38
11678;BME280;5895;41.950;24.372;2023-02-23T06:48:55;86680.66;;;3.36;56.27
11678;BME280;5895;41.950;24.372;2023-02-23T06:51:27;86678.41;;;3.54;55.92
11678;BME280;5895;41.950;24.372;2023-02-23T06:53:59;86674.91;;;3.68;55.02
11678;BME280;5895;41.950;24.372;2023-02-23T06:56:27;86684.47;;;3.88;55.23
11678;BME280;5895;41.950;24.372;2023-02-23T06:58:54;86685.28;;;4.02;57.17
11678;BME280;5895;41.950;24.372;2023-02-23T07:01:21;86683.94;;;4.12;56.37
11678;BME280;5895;41.950;24.372;2023-02-23T07:03:49;86682.59;;;4.30;55.45
11678;BME280;5895;41.950;24.372;2023-02-23T07:06:16;86680.25;;;4.48;54.15
11678;BME280;5895;41.950;24.372;2023-02-23T07:08:44;86682.25;;;4.66;54.17
11678;BME280;5895;41.950;24.372;2023-02-23T07:11:15;86677.13;;;4.86;56.37
11678;BME280;5895;41.950;24.372;2023-02-23T07:13:44;86682.44;;;5.04;54.36
11678;BME280;5895;41.950;24.372;2023-02-23T07:16:11;86679.47;;;5.20;54.90
11678;BME280;5895;41.950;24.372;2023-02-23T07:18:40;86676.69;;;5.42;54.70
11678;BME280;5895;41.950;24.372;2023-02-23T07:21:07;86675.25;;;5.59;54.69
11678;BME280;5895;41.950;24.372;2023-02-23T07:23:35;86680.16;;;5.80;54.46
11678;BME280;5895;41.950;24.372;2023-02-23T07:26:02;86679.91;;;6.02;53.22
11678;BME280;5895;41.950;24.372;2023-02-23T07:28:31;86689.50;;;6.26;52.99
11678;BME280;5895;41.950;24.372;2023-02-23T07:30:58;86680.47;;;6.49;53.46
11678;BME280;5895;41.950;24.372;2023-02-23T07:33:25;86674.00;;;6.71;54.00
11678;BME280;5895;41.950;24.372;2023-02-23T07:35:53;86680.00;;;6.97;52.21
11678;BME280;5895;41.950;24.372;2023-02-23T07:38:20;86676.22;;;7.24;51.47
11678;BME280;5895;41.950;24.372;2023-02-23T07:40:48;86674.41;;;7.50;52.09
11678;BME280;5895;41.950;24.372;2023-02-23T07:43:16;86674.22;;;7.69;51.62
11678;BME280;5895;41.950;24.372;2023-02-23T07:45:47;86678.75;;;7.92;51.76
11678;BME280;5895;41.950;24.372;2023-02-23T07:48:15;86669.34;;;8.16;50.64
11678;BME280;5895;41.950;24.372;2023-02-23T07:50:43;86666.69;;;8.41;49.66
11678;BME280;5895;41.950;24.372;2023-02-23T07:53:11;86667.22;;;8.62;50.49
11678;BME280;5895;41.950;24.372;2023-02-23T07:55:39;86661.13;;;8.86;48.75
11678;BME280;5895;41.950;24.372;2023-02-23T07:58:07;86672.13;;;9.12;48.45
11678;BME280;5895;41.950;24.372;2023-02-23T08:00:35;86669.44;;;9.30;47.54
11678;BME280;5895;41.950;24.372;2023-02-23T08:03:06;86658.44;;;9.46;48.49
11678;BME280;5895;41.950;24.372;2023-02-23T08:05:33;86666.00;;;9.60;47.70
11678;BME280;5895;41.950;24.372;2023-02-23T08:08:01;86669.25;;;9.67;47.97
11678;BME280;5895;41.950;24.372;2023-02-23T08:10:28;86661.72;;;9.77;47.88
11678;BME280;5895;41.950;24.372;2023-02-23T08:12:56;86659.91;;;9.89;47.10
11678;BME280;5895;41.950;24.372;2023-02-23T08:15:24;86666.53;;;10.08;46.61
11678;BME280;5895;41.950;24.372;2023-02-23T08:17:51;86667.44;;;10.26;46.30
11678;BME280;5895;41.950;24.372;2023-02-23T08:20:20;86664.72;;;10.44;47.51
11678;BME280;5895;41.950;24.372;2023-02-23T08:22:52;86665.09;;;10.65;48.00
11678;BME280;5895;41.950;24.372;2023-02-23T08:25:19;86663.25;;;10.77;46.13
11678;BME280;5895;41.950;24.372;2023-02-23T08:27:47;86659.81;;;10.88;45.91
11678;BME280;5895;41.950;24.372;2023-02-23T08:30:17;86665.19;;;10.98;46.30
11678;BME280;5895;41.950;24.372;2023-02-23T08:32:46;86668.53;;;11.10;45.78
11678;BME280;5895;41.950;24.372;2023-02-23T08:35:13;86664.16;;;11.28;45.52
11678;BME280;5895;41.950;24.372;2023-02-23T08:37:42;86670.63;;;11.42;44.64
11678;BME280;5895;41.950;24.372;2023-02-23T08:40:11;86665.59;;;11.52;45.37
11678;BME280;5895;41.950;24.372;2023-02-23T08:42:40;86670.03;;;11.69;44.43
11678;BME280;5895;41.950;24.372;2023-02-23T08:45:08;86668.59;;;11.78;44.50
11678;BME280;5895;41.950;24.372;2023-02-23T08:47:36;86668.84;;;11.93;43.92
11678;BME280;5895;41.950;24.372;2023-02-23T08:50:04;86674.13;;;11.98;43.90
11678;BME280;5895;41.950;24.372;2023-02-23T08:52:31;86672.22;;;12.10;43.63
11678;BME280;5895;41.950;24.372;2023-02-23T08:55:00;86669.84;;;12.26;44.09
11678;BME280;5895;41.950;24.372;2023-02-23T08:57:28;86667.84;;;12.33;43.64
11678;BME280;5895;41.950;24.372;2023-02-23T08:59:55;86678.16;;;12.44;43.04
11678;BME280;5895;41.950;24.372;2023-02-23T09:02:23;86668.06;;;12.48;43.46
11678;BME280;5895;41.950;24.372;2023-02-23T09:04:50;86673.63;;;12.57;43.46
11678;BME280;5895;41.950;24.372;2023-02-23T09:07:20;86676.34;;;12.67;42.89
11678;BME280;5895;41.950;24.372;2023-02-23T09:09:53;86674.19;;;12.81;42.97
11678;BME280;5895;41.950;24.372;2023-02-23T09:12:21;86672.72;;;12.90;43.24
11678;BME280;5895;41.950;24.372;2023-02-23T09:14:49;86677.97;;;12.95;42.69
11678;BME280;5895;41.950;24.372;2023-02-23T09:17:18;86678.34;;;13.04;42.48
11678;BME280;5895;41.950;24.372;2023-02-23T09:19:47;86675.06;;;13.13;42.75
11678;BME280;5895;41.950;24.372;2023-02-23T09:22:15;86678.16;;;13.32;42.22
11678;BME280;5895;41.950;24.372;2023-02-23T09:24:43;86673.88;;;13.48;42.16
11678;BME280;5895;41.950;24.372;2023-02-23T09:27:10;86675.09;;;13.67;42.15
11678;BME280;5895;41.950;24.372;2023-02-23T09:29:41;86674.63;;;13.70;41.97
11678;BME280;5895;41.950;24.372;2023-02-23T09:32:09;86675.66;;;13.74;42.33
11678;BME280;5895;41.950;24.372;2023-02-23T09:34:37;86673.94;;;13.85;42.22
11678;BME280;5895;41.950;24.372;2023-02-23T09:37:04;86676.34;;;13.92;41.66
11678;BME280;5895;41.950;24.372;2023-02-23T09:39:32;86667.06;;;14.06;41.06
11678;BME280;5895;41.950;24.372;2023-02-23T09:42:07;86668.13;;;14.10;40.19
11678;BME280;5895;41.950;24.372;2023-02-23T09:44:47;86671.91;;;14.29;40.16
11678;BME280;5895;41.950;24.372;2023-02-23T09:47:26;86667.81;;;14.39;40.32
11678;BME280;5895;41.950;24.372;2023-02-23T09:49:56;86672.56;;;14.47;40.61
11678;BME280;5895;41.950;24.372;2023-02-23T09:52:29;86664.53;;;14.53;40.26
11678;BME280;5895;41.950;24.372;2023-02-23T09:55:02;86665.84;;;14.56;40.96
11678;BME280;5895;41.950;24.372;2023-02-23T09:57:36;86665.59;;;14.58;39.08
11678;BME280;5895;41.950;24.372;2023-02-23T10:00:19;86667.41;;;14.57;39.57
11678;BME280;5895;41.950;24.372;2023-02-23T10:02:59;86670.06;;;14.62;39.21
11678;BME280;5895;41.950;24.372;2023-02-23T10:05:35;86668.56;;;14.76;41.45
11678;BME280;5895;41.950;24.372;2023-02-23T10:08:07;86671.25;;;14.92;41.19
11678;BME280;5895;41.950;24.372;2023-02-23T10:10:43;86665.06;;;15.18;39.81
11678;BME280;5895;41.950;24.372;2023-02-23T10:13:20;86662.50;;;15.28;40.12
11678;BME280;5895;41.950;24.372;2023-02-23T10:15:55;86655.97;;;15.21;39.67
11678;BME280;5895;41.950;24.372;2023-02-23T10:18:28;86659.38;;;15.37;40.01
11678;BME280;5895;41.950;24.372;2023-02-23T10:21:02;86660.78;;;15.65;39.22
11678;BME280;5895;41.950;24.372;2023-02-23T10:23:33;86653.47;;;15.87;39.89
11678;BME280;5895;41.950;24.372;2023-02-23T10:26:04;86659.25;;;16.14;39.33
11678;BME280;5895;41.950;24.372;2023-02-23T10:28:35;86648.00;;;16.14;39.61
11678;BME280;5895;41.950;24.372;2023-02-23T10:31:22;86656.88;;;16.38;38.49
11678;BME280;5895;41.950;24.372;2023-02-23T10:33:51;86644.81;;;16.58;39.31
11678;BME280;5895;41.950;24.372;2023-02-23T10:36:30;86649.50;;;16.86;39.28
11678;BME280;5895;41.950;24.372;2023-02-23T10:39:02;86649.47;;;16.91;39.82
11678;BME280;5895;41.950;24.372;2023-02-23T10:41:32;86644.69;;;17.09;39.60
11678;BME280;5895;41.950;24.372;2023-02-23T10:44:00;86644.38;;;17.21;39.21
11678;BME280;5895;41.950;24.372;2023-02-23T10:46:35;86645.16;;;17.21;38.85
11678;BME280;5895;41.950;24.372;2023-02-23T10:49:03;86633.03;;;17.40;39.90
11678;BME280;5895;41.950;24.372;2023-02-23T10:51:36;86633.94;;;17.65;39.45
11678;BME280;5895;41.950;24.372;2023-02-23T10:54:34;86629.41;;;17.86;37.01
11678;BME280;5895;41.950;24.372;2023-02-23T10:57:04;86630.66;;;17.93;38.80
11678;BME280;5895;41.950;24.372;2023-02-23T10:59:32;86625.78;;;18.11;38.98
11678;BME280;5895;41.950;24.372;2023-02-23T11:02:14;86618.44;;;18.13;35.83
11678;BME280;5895;41.950;24.372;2023-02-23T11:04:52;86622.59;;;18.19;37.01
11678;BME280;5895;41.950;24.372;2023-02-23T11:07:23;86621.03;;;18.47;38.09
11678;BME280;5895;41.950;24.372;2023-02-23T11:09:51;86627.16;;;18.66;39.01
11678;BME280;5895;41.950;24.372;2023-02-23T11:12:20;86619.63;;;18.89;38.38
11678;BME280;5895;41.950;24.372;2023-02-23T11:14:49;86616.91;;;19.18;37.60
11678;BME280;5895;41.950;24.372;2023-02-23T11:17:36;86612.56;;;19.32;36.28
11678;BME280;5895;41.950;24.372;2023-02-23T11:20:17;86609.22;;;19.45;37.69
11678;BME280;5895;41.950;24.372;2023-02-23T11:22:47;86611.63;;;19.66;38.36
11678;BME280;5895;41.950;24.372;2023-02-23T11:25:22;86606.72;;;19.78;36.98
11678;BME280;5895;41.950;24.372;2023-02-23T11:27:51;86602.97;;;19.84;38.13
11678;BME280;5895;41.950;24.372;2023-02-23T11:30:24;86605.22;;;19.91;37.87
11678;BME280;5895;41.950;24.372;2023-02-23T11:32:57;86611.44;;;20.00;37.50
11678;BME280;5895;41.950;24.372;2023-02-23T11:35:30;86605.81;;;20.06;35.44
11678;BME280;5895;41.950;24.372;2023-02-23T11:37:57;86606.94;;;20.00;37.89
11678;BME280;5895;41.950;24.372;2023-02-23T11:40:27;86609.38;;;20.16;37.63
11678;BME280;5895;41.950;24.372;2023-02-23T11:42:56;86607.13;;;20.23;37.46
11678;BME280;5895;41.950;24.372;2023-02-23T11:45:36;86606.41;;;20.36;37.99
11678;BME280;5895;41.950;24.372;2023-02-23T11:48:06;86607.56;;;20.49;37.39
11678;BME280;5895;41.950;24.372;2023-02-23T11:50:35;86615.38;;;20.35;37.94
11678;BME280;5895;41.950;24.372;2023-02-23T11:53:05;86607.28;;;20.31;37.75
11678;BME280;5895;41.950;24.372;2023-02-23T11:55:35;86608.47;;;20.39;36.39
11678;BME280;5895;41.950;24.372;2023-02-23T11:58:08;86607.47;;;20.35;35.76
11678;BME280;5895;41.950;24.372;2023-02-23T12:00:36;86610.81;;;20.41;38.15
11678;BME280;5895;41.950;24.372;2023-02-23T12:03:06;86608.47;;;20.39;37.26
11678;BME280;5895;41.950;24.372;2023-02-23T12:05:49;86600.47;;;20.44;35.08
11678;BME280;5895;41.950;24.372;2023-02-23T12:08:25;86607.66;;;20.57;34.78
11678;BME280;5895;41.950;24.372;2023-02-23T12:10:58;86612.84;;;20.63;37.68
11678;BME280;5895;41.950;24.372;2023-02-23T12:13:31;86607.28;;;20.64;36.67
11678;BME280;5895;41.950;24.372;2023-02-23T12:16:04;86605.44;;;20.65;36.23
11678;BME280;5895;41.950;24.372;2023-02-23T12:18:44;86600.75;;;20.62;34.51
11678;BME280;5895;41.950;24.372;2023-02-23T12:21:28;86600.66;;;20.67;34.17
11678;BME280;5895;41.950;24.372;2023-02-23T12:24:05;86611.63;;;20.74;36.13
11678;BME280;5895;41.950;24.372;2023-02-23T12:26:42;86608.41;;;20.77;36.13
11678;BME280;5895;41.950;24.372;2023-02-23T12:29:17;86615.81;;;20.75;35.32
11678;BME280;5895;41.950;24.372;2023-02-23T12:31:49;86615.03;;;20.74;37.88
11678;BME280;5895;41.950;24.372;2023-02-23T12:34:23;86617.00;;;20.82;36.36
11678;BME280;5895;41.950;24.372;2023-02-23T12:36:54;86624.03;;;20.87;37.71
11678;BME280;5895;41.950;24.372;2023-02-23T12:39:27;86624.03;;;20.73;37.39
11678;BME280;5895;41.950;24.372;2023-02-23T12:42:01;86622.84;;;20.66;37.65
11678;BME280;5895;41.950;24.372;2023-02-23T12:44:36;86622.59;;;20.48;38.17
11678;BME280;5895;41.950;24.372;2023-02-23T12:47:15;86630.47;;;20.29;36.88
11678;BME280;5895;41.950;24.372;2023-02-23T12:49:51;86625.88;;;19.84;37.29
11678;BME280;5895;41.950;24.372;2023-02-23T12:52:22;86630.56;;;19.68;39.58
11678;BME280;5895;41.950;24.372;2023-02-23T12:54:51;86625.88;;;19.65;39.90
11678;BME280;5895;41.950;24.372;2023-02-23T12:57:24;86630.66;;;19.58;38.34
11678;BME280;5895;41.950;24.372;2023-02-23T13:00:10;86631.97;;;19.12;37.54
11678;BME280;5895;41.950;24.372;2023-02-23T13:02:53;86628.56;;;19.12;39.31
11678;BME280;5895;41.950;24.372;2023-02-23T13:05:38;86628.63;;;19.07;39.28
11678;BME280;5895;41.950;24.372;2023-02-23T13:08:18;86632.47;;;18.90;38.37
11678;BME280;5895;41.950;24.372;2023-02-23T13:10:56;86639.50;;;18.71;39.41
11678;BME280;5895;41.950;24.372;2023-02-23T13:13:35;86636.75;;;18.18;39.58
11678;BME280;5895;41.950;24.372;2023-02-23T13:16:11;86641.19;;;17.83;40.76
11678;BME280;5895;41.950;24.372;2023-02-23T13:18:44;86636.13;;;17.53;41.55
11678;BME280;5895;41.950;24.372;2023-02-23T13:21:21;86635.75;;;17.20;40.88
11678;BME280;5895;41.950;24.372;2023-02-23T13:23:56;86640.59;;;16.82;42.14
11678;BME280;5895;41.950;24.372;2023-02-23T13:26:32;86645.38;;;16.45;42.25
11678;BME280;5895;41.950;24.372;2023-02-23T13:29:04;86645.13;;;15.95;42.79
11678;BME280;5895;41.950;24.372;2023-02-23T13:31:36;86645.81;;;15.45;43.69
11678;BME280;5895;41.950;24.372;2023-02-23T13:34:06;86651.34;;;14.80;45.18
11678;BME280;5895;41.950;24.372;2023-02-23T13:36:37;86651.25;;;14.23;46.20
11678;BME280;5895;41.950;24.372;2023-02-23T13:39:37;86651.50;;;13.84;47.43
11678;BME280;5895;41.950;24.372;2023-02-23T13:42:28;86660.13;;;13.58;48.56